sensor_id;sensor_type;location;lat;lon;timestamp;P1;durP1;ratioP1;P2;durP2;ratioP2
179;SDS011;78;48.788;9.010;2022-11-02T00:00:41;213.47;;;87.87;;
179;SDS011;78;48.788;9.010;2022-11-02T00:03:08;207.37;;;84.03;;
179;SDS011;78;48.788;9.010;2022-11-02T00:05:34;192.00;;;71.13;;
179;SDS011;78;48.788;9.010;2022-11-02T00:08:00;175.57;;;65.13;;
179;SDS011;78;48.788;9.010;2022-11-02T00:10:26;136.50;;;51.53;;
179;SDS011;78;48.788;9.010;2022-11-02T00:12:54;133.63;;;50.33;;
179;SDS011;78;48.788;9.010;2022-11-02T00:15:20;82.40;;;31.80;;
179;SDS011;78;48.788;9.010;2022-11-02T00:17:47;72.70;;;26.57;;
179;SDS011;78;48.788;9.010;2022-11-02T00:20:15;69.00;;;27.70;;
179;SDS011;78;48.788;9.010;2022-11-02T00:22:42;63.97;;;24.27;;
179;SDS011;78;48.788;9.010;2022-11-02T00:25:09;51.40;;;19.10;;
179;SDS011;78;48.788;9.010;2022-11-02T00:27:37;49.40;;;15.50;;
179;SDS011;78;48.788;9.010;2022-11-02T00:30:04;34.93;;;11.67;;
179;SDS011;78;48.788;9.010;2022-11-02T00:32:30;31.27;;;9.40;;
179;SDS011;78;48.788;9.010;2022-11-02T00:34:56;33.73;;;7.00;;
179;SDS011;78;48.788;9.010;2022-11-02T00:37:22;27.87;;;6.90;;
179;SDS011;78;48.788;9.010;2022-11-02T00:39:49;25.07;;;7.07;;
179;SDS011;78;48.788;9.010;2022-11-02T00:42:14;25.47;;;8.53;;
179;SDS011;78;48.788;9.010;2022-11-02T00:44:41;27.17;;;7.27;;
179;SDS011;78;48.788;9.010;2022-11-02T00:47:08;28.50;;;7.20;;
179;SDS011;78;48.788;9.010;2022-11-02T00:49:35;23.87;;;5.47;;
179;SDS011;78;48.788;9.010;2022-11-02T00:52:01;21.97;;;4.70;;
179;SDS011;78;48.788;9.010;2022-11-02T00:54:28;20.83;;;5.13;;
179;SDS011;78;48.788;9.010;2022-11-02T00:56:55;23.73;;;4.80;;
179;SDS011;78;48.788;9.010;2022-11-02T00:59:21;20.63;;;5.10;;
179;SDS011;78;48.788;9.010;2022-11-02T01:01:47;21.47;;;4.17;;
179;SDS011;78;48.788;9.010;2022-11-02T01:04:13;21.57;;;4.60;;
179;SDS011;78;48.788;9.010;2022-11-02T01:06:43;18.33;;;3.70;;
179;SDS011;78;48.788;9.010;2022-11-02T01:09:09;17.70;;;3.80;;
179;SDS011;78;48.788;9.010;2022-11-02T01:11:35;20.77;;;4.10;;
179;SDS011;78;48.788;9.010;2022-11-02T01:14:01;20.00;;;4.03;;
179;SDS011;78;48.788;9.010;2022-11-02T01:16:27;20.60;;;3.80;;
179;SDS011;78;48.788;9.010;2022-11-02T01:18:54;20.20;;;4.43;;
179;SDS011;78;48.788;9.010;2022-11-02T01:21:20;17.50;;;3.60;;
179;SDS011;78;48.788;9.010;2022-11-02T01:23:46;20.87;;;3.70;;
179;SDS011;78;48.788;9.010;2022-11-02T01:26:12;22.50;;;4.10;;
179;SDS011;78;48.788;9.010;2022-11-02T01:28:38;19.93;;;4.17;;
179;SDS011;78;48.788;9.010;2022-11-02T01:31:05;20.43;;;4.30;;
179;SDS011;78;48.788;9.010;2022-11-02T01:33:31;23.40;;;4.17;;
179;SDS011;78;48.788;9.010;2022-11-02T01:35:57;22.00;;;4.33;;
179;SDS011;78;48.788;9.010;2022-11-02T01:38:23;25.13;;;3.80;;
179;SDS011;78;48.788;9.010;2022-11-02T01:40:50;18.83;;;4.00;;
179;SDS011;78;48.788;9.010;2022-11-02T01:45:49;17.00;;;3.40;;
179;SDS011;78;48.788;9.010;2022-11-02T01:48:16;21.47;;;3.90;;
179;SDS011;78;48.788;9.010;2022-11-02T01:50:42;20.90;;;3.40;;
179;SDS011;78;48.788;9.010;2022-11-02T01:53:08;20.60;;;3.63;;
179;SDS011;78;48.788;9.010;2022-11-02T01:55:34;22.93;;;4.10;;
179;SDS011;78;48.788;9.010;2022-11-02T01:58:02;18.63;;;4.03;;
179;SDS011;78;48.788;9.010;2022-11-02T02:00:29;22.40;;;3.87;;
179;SDS011;78;48.788;9.010;2022-11-02T02:05:21;23.20;;;4.10;;
179;SDS011;78;48.788;9.010;2022-11-02T02:07:48;18.60;;;3.87;;
179;SDS011;78;48.788;9.010;2022-11-02T02:10:14;22.83;;;3.97;;
179;SDS011;78;48.788;9.010;2022-11-02T02:12:41;22.50;;;4.07;;
179;SDS011;78;48.788;9.010;2022-11-02T02:15:07;17.30;;;3.50;;
179;SDS011;78;48.788;9.010;2022-11-02T02:17:42;25.37;;;4.30;;
179;SDS011;78;48.788;9.010;2022-11-02T02:30:56;20.93;;;3.90;;
179;SDS011;78;48.788;9.010;2022-11-02T02:33:26;20.60;;;3.90;;
179;SDS011;78;48.788;9.010;2022-11-02T02:35:58;25.47;;;3.73;;
179;SDS011;78;48.788;9.010;2022-11-02T02:38:37;22.37;;;4.17;;
179;SDS011;78;48.788;9.010;2022-11-02T02:41:18;18.80;;;3.90;;
179;SDS011;78;48.788;9.010;2022-11-02T02:43:49;18.43;;;3.30;;
179;SDS011;78;48.788;9.010;2022-11-02T02:48:42;19.90;;;3.90;;
179;SDS011;78;48.788;9.010;2022-11-02T02:51:11;24.13;;;4.10;;
179;SDS011;78;48.788;9.010;2022-11-02T02:53:41;25.00;;;4.10;;
179;SDS011;78;48.788;9.010;2022-11-02T02:56:08;23.03;;;4.00;;
179;SDS011;78;48.788;9.010;2022-11-02T02:58:44;19.47;;;3.60;;
179;SDS011;78;48.788;9.010;2022-11-02T03:01:12;20.87;;;4.30;;
179;SDS011;78;48.788;9.010;2022-11-02T03:03:39;20.30;;;3.80;;
179;SDS011;78;48.788;9.010;2022-11-02T03:08:42;18.30;;;3.77;;
179;SDS011;78;48.788;9.010;2022-11-02T03:11:13;23.57;;;4.37;;
179;SDS011;78;48.788;9.010;2022-11-02T03:16:31;20.93;;;4.10;;
179;SDS011;78;48.788;9.010;2022-11-02T03:19:05;24.87;;;4.47;;
179;SDS011;78;48.788;9.010;2022-11-02T03:21:40;19.40;;;3.80;;
179;SDS011;78;48.788;9.010;2022-11-02T03:24:17;19.90;;;3.90;;
179;SDS011;78;48.788;9.010;2022-11-02T03:29:33;18.43;;;4.07;;
179;SDS011;78;48.788;9.010;2022-11-02T03:32:00;18.53;;;3.60;;
179;SDS011;78;48.788;9.010;2022-11-02T03:34:33;20.00;;;3.73;;
179;SDS011;78;48.788;9.010;2022-11-02T03:37:23;16.60;;;3.40;;
179;SDS011;78;48.788;9.010;2022-11-02T03:39:51;20.77;;;3.70;;
179;SDS011;78;48.788;9.010;2022-11-02T03:42:22;18.73;;;3.67;;
179;SDS011;78;48.788;9.010;2022-11-02T03:44:49;23.37;;;4.47;;
179;SDS011;78;48.788;9.010;2022-11-02T03:47:17;21.50;;;4.03;;
179;SDS011;78;48.788;9.010;2022-11-02T03:49:44;20.93;;;4.17;;
179;SDS011;78;48.788;9.010;2022-11-02T03:52:13;21.50;;;3.93;;
179;SDS011;78;48.788;9.010;2022-11-02T03:54:43;19.33;;;4.10;;
179;SDS011;78;48.788;9.010;2022-11-02T03:57:15;24.63;;;4.13;;
179;SDS011;78;48.788;9.010;2022-11-02T03:59:43;20.00;;;4.40;;
179;SDS011;78;48.788;9.010;2022-11-02T04:02:09;29.13;;;4.37;;
179;SDS011;78;48.788;9.010;2022-11-02T04:04:45;19.67;;;3.97;;
179;SDS011;78;48.788;9.010;2022-11-02T04:07:12;26.57;;;4.40;;
179;SDS011;78;48.788;9.010;2022-11-02T04:09:38;24.23;;;3.30;;
179;SDS011;78;48.788;9.010;2022-11-02T04:12:04;18.97;;;4.10;;
179;SDS011;78;48.788;9.010;2022-11-02T04:14:49;22.73;;;3.70;;
179;SDS011;78;48.788;9.010;2022-11-02T04:17:15;19.23;;;3.83;;
179;SDS011;78;48.788;9.010;2022-11-02T04:20:00;24.27;;;3.73;;
179;SDS011;78;48.788;9.010;2022-11-02T04:22:26;20.07;;;3.37;;
179;SDS011;78;48.788;9.010;2022-11-02T04:25:15;20.53;;;3.90;;
179;SDS011;78;48.788;9.010;2022-11-02T04:27:48;18.20;;;3.90;;
179;SDS011;78;48.788;9.010;2022-11-02T04:30:15;17.93;;;3.67;;
179;SDS011;78;48.788;9.010;2022-11-02T04:32:43;18.83;;;3.77;;
179;SDS011;78;48.788;9.010;2022-11-02T04:35:28;21.17;;;3.70;;
179;SDS011;78;48.788;9.010;2022-11-02T04:37:55;23.67;;;4.10;;
179;SDS011;78;48.788;9.010;2022-11-02T04:40:41;18.40;;;3.87;;
179;SDS011;78;48.788;9.010;2022-11-02T04:43:07;20.03;;;3.77;;
179;SDS011;78;48.788;9.010;2022-11-02T04:45:34;21.90;;;3.60;;
179;SDS011;78;48.788;9.010;2022-11-02T04:48:09;26.03;;;4.03;;
179;SDS011;78;48.788;9.010;2022-11-02T04:50:35;19.57;;;3.60;;
179;SDS011;78;48.788;9.010;2022-11-02T04:53:02;23.97;;;3.93;;
179;SDS011;78;48.788;9.010;2022-11-02T04:55:28;20.40;;;3.70;;
179;SDS011;78;48.788;9.010;2022-11-02T04:57:54;18.63;;;3.57;;
179;SDS011;78;48.788;9.010;2022-11-02T05:00:20;27.90;;;4.33;;
179;SDS011;78;48.788;9.010;2022-11-02T05:02:47;21.50;;;3.83;;
179;SDS011;78;48.788;9.010;2022-11-02T05:05:13;24.23;;;4.17;;
179;SDS011;78;48.788;9.010;2022-11-02T05:07:39;23.57;;;4.30;;
179;SDS011;78;48.788;9.010;2022-11-02T05:10:05;23.13;;;3.73;;
179;SDS011;78;48.788;9.010;2022-11-02T05:12:31;24.00;;;3.73;;
179;SDS011;78;48.788;9.010;2022-11-02T05:14:57;28.40;;;4.67;;
179;SDS011;78;48.788;9.010;2022-11-02T05:17:23;20.07;;;3.97;;
179;SDS011;78;48.788;9.010;2022-11-02T05:19:49;19.30;;;3.60;;
179;SDS011;78;48.788;9.010;2022-11-02T05:22:15;26.50;;;4.03;;
179;SDS011;78;48.788;9.010;2022-11-02T05:24:41;21.07;;;3.83;;
179;SDS011;78;48.788;9.010;2022-11-02T05:27:10;18.53;;;3.47;;
179;SDS011;78;48.788;9.010;2022-11-02T05:29:37;23.20;;;3.87;;
179;SDS011;78;48.788;9.010;2022-11-02T05:32:03;19.60;;;3.50;;
179;SDS011;78;48.788;9.010;2022-11-02T05:34:30;22.17;;;4.17;;
179;SDS011;78;48.788;9.010;2022-11-02T05:36:56;26.60;;;3.70;;
179;SDS011;78;48.788;9.010;2022-11-02T05:39:22;21.77;;;4.00;;
179;SDS011;78;48.788;9.010;2022-11-02T05:41:48;23.13;;;3.80;;
179;SDS011;78;48.788;9.010;2022-11-02T05:44:14;26.97;;;4.50;;
179;SDS011;78;48.788;9.010;2022-11-02T05:46:41;20.50;;;3.50;;
179;SDS011;78;48.788;9.010;2022-11-02T05:49:07;22.97;;;3.70;;
179;SDS011;78;48.788;9.010;2022-11-02T05:51:33;20.90;;;3.90;;
179;SDS011;78;48.788;9.010;2022-11-02T05:54:00;25.00;;;3.57;;
179;SDS011;78;48.788;9.010;2022-11-02T05:56:27;23.83;;;3.93;;
179;SDS011;78;48.788;9.010;2022-11-02T05:58:53;19.70;;;3.77;;
179;SDS011;78;48.788;9.010;2022-11-02T06:01:19;23.00;;;3.60;;
179;SDS011;78;48.788;9.010;2022-11-02T06:03:46;26.73;;;4.23;;
179;SDS011;78;48.788;9.010;2022-11-02T06:06:12;23.97;;;3.87;;
179;SDS011;78;48.788;9.010;2022-11-02T06:08:38;28.33;;;3.93;;
179;SDS011;78;48.788;9.010;2022-11-02T06:11:08;24.80;;;3.93;;
179;SDS011;78;48.788;9.010;2022-11-02T06:13:35;23.40;;;3.80;;
179;SDS011;78;48.788;9.010;2022-11-02T06:16:02;22.40;;;3.50;;
179;SDS011;78;48.788;9.010;2022-11-02T06:18:29;21.00;;;3.73;;
179;SDS011;78;48.788;9.010;2022-11-02T06:20:56;22.20;;;3.40;;
179;SDS011;78;48.788;9.010;2022-11-02T06:23:23;21.77;;;3.40;;
179;SDS011;78;48.788;9.010;2022-11-02T06:25:52;20.20;;;2.90;;
179;SDS011;78;48.788;9.010;2022-11-02T06:28:19;22.47;;;4.17;;
179;SDS011;78;48.788;9.010;2022-11-02T06:30:45;30.40;;;4.10;;
179;SDS011;78;48.788;9.010;2022-11-02T06:33:11;21.73;;;3.40;;
179;SDS011;78;48.788;9.010;2022-11-02T06:35:38;30.90;;;3.80;;
179;SDS011;78;48.788;9.010;2022-11-02T06:38:04;24.30;;;3.90;;
179;SDS011;78;48.788;9.010;2022-11-02T06:40:30;21.27;;;3.07;;
179;SDS011;78;48.788;9.010;2022-11-02T06:42:57;22.13;;;3.73;;
179;SDS011;78;48.788;9.010;2022-11-02T06:45:23;23.90;;;3.63;;
179;SDS011;78;48.788;9.010;2022-11-02T06:47:50;24.17;;;3.77;;
179;SDS011;78;48.788;9.010;2022-11-02T06:50:16;19.63;;;3.13;;
179;SDS011;78;48.788;9.010;2022-11-02T06:52:45;20.23;;;3.70;;
179;SDS011;78;48.788;9.010;2022-11-02T06:55:12;21.27;;;3.90;;
179;SDS011;78;48.788;9.010;2022-11-02T06:57:38;24.43;;;3.90;;
179;SDS011;78;48.788;9.010;2022-11-02T07:00:05;21.57;;;3.50;;
179;SDS011;78;48.788;9.010;2022-11-02T07:02:32;20.57;;;3.47;;
179;SDS011;78;48.788;9.010;2022-11-02T07:04:59;20.73;;;3.50;;
179;SDS011;78;48.788;9.010;2022-11-02T07:07:26;23.97;;;3.63;;
179;SDS011;78;48.788;9.010;2022-11-02T07:09:52;28.93;;;4.20;;
179;SDS011;78;48.788;9.010;2022-11-02T07:12:18;22.97;;;3.87;;
179;SDS011;78;48.788;9.010;2022-11-02T07:14:46;21.13;;;3.60;;
179;SDS011;78;48.788;9.010;2022-11-02T07:17:12;24.87;;;3.70;;
179;SDS011;78;48.788;9.010;2022-11-02T07:19:38;19.87;;;3.70;;
179;SDS011;78;48.788;9.010;2022-11-02T07:22:04;21.03;;;3.47;;
179;SDS011;78;48.788;9.010;2022-11-02T07:24:30;25.30;;;3.77;;
179;SDS011;78;48.788;9.010;2022-11-02T07:26:56;20.87;;;3.50;;
179;SDS011;78;48.788;9.010;2022-11-02T07:29:22;24.73;;;3.60;;
179;SDS011;78;48.788;9.010;2022-11-02T07:31:48;22.30;;;4.23;;
179;SDS011;78;48.788;9.010;2022-11-02T07:34:14;18.97;;;3.73;;
179;SDS011;78;48.788;9.010;2022-11-02T07:36:40;27.90;;;3.60;;
179;SDS011;78;48.788;9.010;2022-11-02T07:39:06;25.77;;;3.70;;
179;SDS011;78;48.788;9.010;2022-11-02T07:41:32;20.93;;;3.50;;
179;SDS011;78;48.788;9.010;2022-11-02T07:43:59;23.57;;;3.37;;
179;SDS011;78;48.788;9.010;2022-11-02T07:46:25;23.43;;;3.30;;
179;SDS011;78;48.788;9.010;2022-11-02T07:48:50;21.70;;;3.60;;
179;SDS011;78;48.788;9.010;2022-11-02T07:51:16;24.77;;;3.67;;
179;SDS011;78;48.788;9.010;2022-11-02T07:53:42;23.90;;;3.27;;
179;SDS011;78;48.788;9.010;2022-11-02T07:56:09;19.40;;;3.10;;
179;SDS011;78;48.788;9.010;2022-11-02T07:58:35;24.87;;;3.53;;
179;SDS011;78;48.788;9.010;2022-11-02T08:01:01;20.83;;;3.33;;
179;SDS011;78;48.788;9.010;2022-11-02T08:03:27;25.20;;;3.50;;
179;SDS011;78;48.788;9.010;2022-11-02T08:05:54;25.73;;;3.93;;
179;SDS011;78;48.788;9.010;2022-11-02T08:08:20;27.30;;;3.77;;
179;SDS011;78;48.788;9.010;2022-11-02T08:10:48;20.10;;;3.20;;
179;SDS011;78;48.788;9.010;2022-11-02T08:13:17;23.47;;;3.20;;
179;SDS011;78;48.788;9.010;2022-11-02T08:15:43;22.13;;;3.50;;
179;SDS011;78;48.788;9.010;2022-11-02T08:18:13;21.87;;;3.63;;
179;SDS011;78;48.788;9.010;2022-11-02T08:20:39;23.77;;;2.93;;
179;SDS011;78;48.788;9.010;2022-11-02T08:23:05;20.13;;;3.10;;
179;SDS011;78;48.788;9.010;2022-11-02T08:25:34;22.93;;;3.63;;
179;SDS011;78;48.788;9.010;2022-11-02T08:28:01;23.37;;;3.60;;
179;SDS011;78;48.788;9.010;2022-11-02T08:30:27;24.60;;;3.57;;
179;SDS011;78;48.788;9.010;2022-11-02T08:32:54;23.37;;;3.60;;
179;SDS011;78;48.788;9.010;2022-11-02T08:35:20;24.43;;;3.70;;
179;SDS011;78;48.788;9.010;2022-11-02T08:37:55;23.57;;;3.07;;
179;SDS011;78;48.788;9.010;2022-11-02T08:40:23;22.07;;;2.90;;
179;SDS011;78;48.788;9.010;2022-11-02T08:43:00;20.83;;;3.00;;
179;SDS011;78;48.788;9.010;2022-11-02T08:45:26;23.33;;;3.43;;
179;SDS011;78;48.788;9.010;2022-11-02T08:47:53;20.50;;;3.00;;
179;SDS011;78;48.788;9.010;2022-11-02T08:50:19;19.17;;;3.30;;
179;SDS011;78;48.788;9.010;2022-11-02T08:52:45;19.50;;;3.30;;
179;SDS011;78;48.788;9.010;2022-11-02T08:55:11;20.33;;;3.40;;
179;SDS011;78;48.788;9.010;2022-11-02T08:57:44;16.30;;;2.40;;
179;SDS011;78;48.788;9.010;2022-11-02T09:00:10;22.37;;;3.50;;
179;SDS011;78;48.788;9.010;2022-11-02T09:02:37;22.37;;;3.40;;
179;SDS011;78;48.788;9.010;2022-11-02T09:05:03;21.00;;;3.10;;
179;SDS011;78;48.788;9.010;2022-11-02T09:07:29;19.17;;;3.10;;
179;SDS011;78;48.788;9.010;2022-11-02T09:09:55;21.83;;;3.07;;
179;SDS011;78;48.788;9.010;2022-11-02T09:12:21;25.13;;;3.30;;
179;SDS011;78;48.788;9.010;2022-11-02T09:14:47;19.90;;;2.90;;
179;SDS011;78;48.788;9.010;2022-11-02T09:17:13;21.50;;;3.23;;
179;SDS011;78;48.788;9.010;2022-11-02T09:19:39;21.43;;;3.50;;
179;SDS011;78;48.788;9.010;2022-11-02T09:22:05;25.30;;;3.50;;
179;SDS011;78;48.788;9.010;2022-11-02T09:24:31;24.47;;;3.50;;
179;SDS011;78;48.788;9.010;2022-11-02T09:26:57;23.23;;;3.10;;
179;SDS011;78;48.788;9.010;2022-11-02T09:29:23;22.33;;;2.90;;
179;SDS011;78;48.788;9.010;2022-11-02T09:31:49;19.57;;;3.00;;
179;SDS011;78;48.788;9.010;2022-11-02T09:34:15;19.17;;;2.87;;
179;SDS011;78;48.788;9.010;2022-11-02T09:36:41;24.13;;;3.40;;
179;SDS011;78;48.788;9.010;2022-11-02T09:39:07;25.60;;;3.07;;
179;SDS011;78;48.788;9.010;2022-11-02T09:42:21;22.57;;;3.00;;
179;SDS011;78;48.788;9.010;2022-11-02T09:44:25;24.63;;;3.53;;
179;SDS011;78;48.788;9.010;2022-11-02T09:46:54;24.37;;;3.00;;
179;SDS011;78;48.788;9.010;2022-11-02T09:49:21;22.93;;;3.10;;
179;SDS011;78;48.788;9.010;2022-11-02T09:51:55;26.77;;;3.30;;
179;SDS011;78;48.788;9.010;2022-11-02T09:54:23;24.07;;;3.00;;
179;SDS011;78;48.788;9.010;2022-11-02T09:56:50;22.13;;;2.53;;
179;SDS011;78;48.788;9.010;2022-11-02T09:59:24;25.13;;;3.80;;
179;SDS011;78;48.788;9.010;2022-11-02T10:05:09;23.50;;;3.10;;
179;SDS011;78;48.788;9.010;2022-11-02T10:15:43;17.53;;;2.67;;
179;SDS011;78;48.788;9.010;2022-11-02T10:18:12;22.53;;;3.23;;
179;SDS011;78;48.788;9.010;2022-11-02T10:20:43;23.53;;;3.30;;
179;SDS011;78;48.788;9.010;2022-11-02T10:23:11;19.53;;;2.87;;
179;SDS011;78;48.788;9.010;2022-11-02T10:25:41;23.90;;;3.50;;
179;SDS011;78;48.788;9.010;2022-11-02T10:28:13;21.13;;;3.03;;
179;SDS011;78;48.788;9.010;2022-11-02T10:30:40;21.30;;;3.10;;
179;SDS011;78;48.788;9.010;2022-11-02T10:33:12;25.00;;;4.50;;
179;SDS011;78;48.788;9.010;2022-11-02T10:49:00;22.53;;;2.97;;
179;SDS011;78;48.788;9.010;2022-11-02T10:51:30;22.03;;;3.13;;
179;SDS011;78;48.788;9.010;2022-11-02T10:53:56;20.40;;;2.70;;
179;SDS011;78;48.788;9.010;2022-11-02T10:56:29;19.80;;;2.57;;
179;SDS011;78;48.788;9.010;2022-11-02T11:01:25;21.27;;;3.10;;
179;SDS011;78;48.788;9.010;2022-11-02T11:03:52;20.00;;;3.20;;
179;SDS011;78;48.788;9.010;2022-11-02T11:06:19;22.07;;;3.40;;
179;SDS011;78;48.788;9.010;2022-11-02T11:08:45;22.10;;;3.23;;
179;SDS011;78;48.788;9.010;2022-11-02T11:13:40;24.60;;;3.90;;
179;SDS011;78;48.788;9.010;2022-11-02T11:16:07;21.70;;;3.40;;
179;SDS011;78;48.788;9.010;2022-11-02T11:18:33;19.30;;;3.10;;
179;SDS011;78;48.788;9.010;2022-11-02T11:20:59;22.40;;;2.90;;
179;SDS011;78;48.788;9.010;2022-11-02T11:23:25;29.20;;;3.10;;
179;SDS011;78;48.788;9.010;2022-11-02T11:25:52;24.70;;;3.33;;
179;SDS011;78;48.788;9.010;2022-11-02T11:28:21;28.60;;;3.23;;
179;SDS011;78;48.788;9.010;2022-11-02T11:30:49;22.10;;;3.10;;
179;SDS011;78;48.788;9.010;2022-11-02T11:33:26;22.67;;;3.43;;
179;SDS011;78;48.788;9.010;2022-11-02T11:35:52;18.93;;;2.80;;
179;SDS011;78;48.788;9.010;2022-11-02T11:38:19;21.60;;;3.20;;
179;SDS011;78;48.788;9.010;2022-11-02T11:40:46;22.40;;;3.23;;
179;SDS011;78;48.788;9.010;2022-11-02T11:43:18;20.20;;;2.83;;
179;SDS011;78;48.788;9.010;2022-11-02T11:46:01;23.23;;;3.27;;
179;SDS011;78;48.788;9.010;2022-11-02T11:48:38;20.80;;;2.97;;
179;SDS011;78;48.788;9.010;2022-11-02T11:51:16;23.70;;;3.27;;
179;SDS011;78;48.788;9.010;2022-11-02T11:54:02;23.30;;;2.90;;
179;SDS011;78;48.788;9.010;2022-11-02T11:56:29;21.53;;;2.63;;
179;SDS011;78;48.788;9.010;2022-11-02T11:58:56;22.30;;;3.23;;
179;SDS011;78;48.788;9.010;2022-11-02T12:01:22;26.70;;;3.63;;
179;SDS011;78;48.788;9.010;2022-11-02T12:08:53;19.97;;;3.00;;
179;SDS011;78;48.788;9.010;2022-11-02T12:11:35;23.63;;;2.87;;
179;SDS011;78;48.788;9.010;2022-11-02T12:14:09;22.57;;;2.80;;
179;SDS011;78;48.788;9.010;2022-11-02T12:24:24;18.87;;;2.87;;
179;SDS011;78;48.788;9.010;2022-11-02T12:26:56;22.33;;;3.27;;
179;SDS011;78;48.788;9.010;2022-11-02T12:42:54;23.67;;;3.43;;
179;SDS011;78;48.788;9.010;2022-11-02T12:45:25;20.23;;;2.80;;
179;SDS011;78;48.788;9.010;2022-11-02T12:47:58;26.10;;;3.13;;
179;SDS011;78;48.788;9.010;2022-11-02T12:52:57;25.87;;;3.13;;
179;SDS011;78;48.788;9.010;2022-11-02T12:55:25;19.43;;;2.60;;
179;SDS011;78;48.788;9.010;2022-11-02T12:57:55;22.87;;;3.50;;
179;SDS011;78;48.788;9.010;2022-11-02T13:00:23;17.43;;;2.33;;
179;SDS011;78;48.788;9.010;2022-11-02T13:03:00;19.30;;;2.67;;
179;SDS011;78;48.788;9.010;2022-11-02T13:06:01;21.87;;;3.40;;
179;SDS011;78;48.788;9.010;2022-11-02T13:08:22;18.30;;;2.73;;
179;SDS011;78;48.788;9.010;2022-11-02T13:10:52;18.90;;;2.60;;
179;SDS011;78;48.788;9.010;2022-11-02T13:15:58;19.97;;;2.90;;
179;SDS011;78;48.788;9.010;2022-11-02T13:18:26;19.47;;;2.70;;
179;SDS011;78;48.788;9.010;2022-11-02T13:20:57;22.67;;;3.00;;
179;SDS011;78;48.788;9.010;2022-11-02T13:25:56;20.53;;;3.03;;
179;SDS011;78;48.788;9.010;2022-11-02T13:31:12;19.87;;;3.20;;
179;SDS011;78;48.788;9.010;2022-11-02T13:33:43;21.60;;;2.90;;
179;SDS011;78;48.788;9.010;2022-11-02T13:36:11;22.07;;;3.30;;
179;SDS011;78;48.788;9.010;2022-11-02T13:46:17;18.67;;;3.00;;
179;SDS011;78;48.788;9.010;2022-11-02T13:48:50;20.60;;;3.50;;
179;SDS011;78;48.788;9.010;2022-11-02T13:51:29;21.93;;;3.40;;
179;SDS011;78;48.788;9.010;2022-11-02T13:54:02;22.30;;;3.17;;
179;SDS011;78;48.788;9.010;2022-11-02T13:56:33;23.60;;;3.40;;
179;SDS011;78;48.788;9.010;2022-11-02T13:59:04;18.70;;;3.00;;
179;SDS011;78;48.788;9.010;2022-11-02T14:01:31;23.23;;;3.47;;
179;SDS011;78;48.788;9.010;2022-11-02T14:04:02;22.60;;;3.23;;
179;SDS011;78;48.788;9.010;2022-11-02T14:06:30;22.40;;;3.20;;
179;SDS011;78;48.788;9.010;2022-11-02T14:09:01;23.33;;;3.43;;
179;SDS011;78;48.788;9.010;2022-11-02T14:22:06;20.93;;;3.17;;
179;SDS011;78;48.788;9.010;2022-11-02T14:48:10;17.93;;;3.27;;
179;SDS011;78;48.788;9.010;2022-11-02T14:50:39;17.80;;;3.03;;
179;SDS011;78;48.788;9.010;2022-11-02T14:53:15;19.83;;;3.07;;
179;SDS011;78;48.788;9.010;2022-11-02T14:55:50;20.60;;;3.40;;
179;SDS011;78;48.788;9.010;2022-11-02T14:58:17;18.53;;;3.13;;
179;SDS011;78;48.788;9.010;2022-11-02T15:03:46;18.03;;;2.70;;
179;SDS011;78;48.788;9.010;2022-11-02T15:06:23;17.70;;;2.80;;
179;SDS011;78;48.788;9.010;2022-11-02T15:08:55;17.27;;;3.00;;
179;SDS011;78;48.788;9.010;2022-11-02T15:16:51;21.30;;;3.07;;
179;SDS011;78;48.788;9.010;2022-11-02T15:24:47;21.27;;;3.17;;
179;SDS011;78;48.788;9.010;2022-11-02T15:27:14;25.57;;;3.57;;
179;SDS011;78;48.788;9.010;2022-11-02T15:29:42;24.93;;;3.50;;
179;SDS011;78;48.788;9.010;2022-11-02T15:32:16;25.07;;;3.90;;
179;SDS011;78;48.788;9.010;2022-11-02T15:34:44;21.63;;;3.97;;
179;SDS011;78;48.788;9.010;2022-11-02T15:37:15;22.73;;;3.33;;
179;SDS011;78;48.788;9.010;2022-11-02T15:39:49;23.90;;;3.63;;
179;SDS011;78;48.788;9.010;2022-11-02T15:50:08;25.80;;;3.33;;
179;SDS011;78;48.788;9.010;2022-11-02T15:57:55;24.90;;;4.20;;
179;SDS011;78;48.788;9.010;2022-11-02T16:00:23;24.80;;;3.97;;
179;SDS011;78;48.788;9.010;2022-11-02T16:02:54;21.57;;;3.80;;
179;SDS011;78;48.788;9.010;2022-11-02T16:05:24;28.10;;;4.70;;
179;SDS011;78;48.788;9.010;2022-11-02T16:07:55;24.33;;;4.20;;
179;SDS011;78;48.788;9.010;2022-11-02T16:15:32;27.67;;;4.10;;
179;SDS011;78;48.788;9.010;2022-11-02T16:17:58;24.40;;;4.00;;
179;SDS011;78;48.788;9.010;2022-11-02T16:20:26;26.10;;;4.57;;
179;SDS011;78;48.788;9.010;2022-11-02T16:25:28;30.80;;;4.70;;
179;SDS011;78;48.788;9.010;2022-11-02T16:27:55;30.17;;;4.20;;
179;SDS011;78;48.788;9.010;2022-11-02T16:30:21;26.57;;;4.40;;
179;SDS011;78;48.788;9.010;2022-11-02T16:32:52;28.60;;;4.27;;
179;SDS011;78;48.788;9.010;2022-11-02T16:35:24;24.60;;;4.20;;
179;SDS011;78;48.788;9.010;2022-11-02T16:37:50;24.90;;;4.13;;
179;SDS011;78;48.788;9.010;2022-11-02T16:40:17;20.70;;;3.87;;
179;SDS011;78;48.788;9.010;2022-11-02T16:42:44;21.30;;;4.10;;
179;SDS011;78;48.788;9.010;2022-11-02T16:45:27;28.50;;;4.47;;
179;SDS011;78;48.788;9.010;2022-11-02T16:47:54;26.63;;;4.70;;
179;SDS011;78;48.788;9.010;2022-11-02T16:50:21;26.93;;;5.10;;
179;SDS011;78;48.788;9.010;2022-11-02T16:52:57;25.23;;;4.33;;
179;SDS011;78;48.788;9.010;2022-11-02T16:55:32;24.93;;;3.90;;
179;SDS011;78;48.788;9.010;2022-11-02T16:57:59;24.60;;;4.00;;
179;SDS011;78;48.788;9.010;2022-11-02T17:00:26;26.87;;;4.60;;
179;SDS011;78;48.788;9.010;2022-11-02T17:02:53;22.90;;;3.90;;
179;SDS011;78;48.788;9.010;2022-11-02T17:05:20;32.73;;;4.07;;
179;SDS011;78;48.788;9.010;2022-11-02T17:07:49;25.80;;;4.10;;
179;SDS011;78;48.788;9.010;2022-11-02T17:10:22;25.03;;;4.23;;
179;SDS011;78;48.788;9.010;2022-11-02T17:12:48;21.63;;;3.70;;
179;SDS011;78;48.788;9.010;2022-11-02T17:15:16;22.83;;;4.00;;
179;SDS011;78;48.788;9.010;2022-11-02T17:17:43;19.90;;;3.33;;
179;SDS011;78;48.788;9.010;2022-11-02T17:22:36;25.63;;;3.80;;
179;SDS011;78;48.788;9.010;2022-11-02T17:27:29;33.73;;;4.70;;
179;SDS011;78;48.788;9.010;2022-11-02T17:29:57;29.03;;;4.13;;
179;SDS011;78;48.788;9.010;2022-11-02T17:32:23;24.63;;;3.97;;
179;SDS011;78;48.788;9.010;2022-11-02T17:34:50;25.13;;;4.23;;
179;SDS011;78;48.788;9.010;2022-11-02T17:37:23;31.80;;;4.50;;
179;SDS011;78;48.788;9.010;2022-11-02T17:39:50;27.60;;;4.40;;
179;SDS011;78;48.788;9.010;2022-11-02T17:42:16;23.07;;;3.93;;
179;SDS011;78;48.788;9.010;2022-11-02T17:47:45;28.20;;;4.27;;
179;SDS011;78;48.788;9.010;2022-11-02T17:50:11;24.43;;;4.00;;
179;SDS011;78;48.788;9.010;2022-11-02T17:52:38;22.23;;;3.97;;
179;SDS011;78;48.788;9.010;2022-11-02T17:55:05;25.63;;;3.90;;
179;SDS011;78;48.788;9.010;2022-11-02T17:57:31;25.03;;;4.30;;
179;SDS011;78;48.788;9.010;2022-11-02T17:59:57;23.43;;;4.50;;
179;SDS011;78;48.788;9.010;2022-11-02T18:02:23;26.97;;;4.30;;
179;SDS011;78;48.788;9.010;2022-11-02T18:04:49;25.70;;;4.20;;
179;SDS011;78;48.788;9.010;2022-11-02T18:07:15;21.10;;;4.13;;
179;SDS011;78;48.788;9.010;2022-11-02T18:09:41;30.50;;;6.97;;
179;SDS011;78;48.788;9.010;2022-11-02T18:12:13;29.20;;;8.33;;
179;SDS011;78;48.788;9.010;2022-11-02T18:14:39;33.17;;;6.17;;
179;SDS011;78;48.788;9.010;2022-11-02T18:17:06;24.57;;;4.57;;
179;SDS011;78;48.788;9.010;2022-11-02T18:19:32;22.80;;;4.37;;
179;SDS011;78;48.788;9.010;2022-11-02T18:21:58;23.23;;;4.03;;
179;SDS011;78;48.788;9.010;2022-11-02T18:24:24;23.97;;;4.10;;
179;SDS011;78;48.788;9.010;2022-11-02T18:26:50;27.67;;;4.40;;
179;SDS011;78;48.788;9.010;2022-11-02T18:29:18;33.07;;;4.50;;
179;SDS011;78;48.788;9.010;2022-11-02T18:31:44;30.83;;;5.23;;
179;SDS011;78;48.788;9.010;2022-11-02T18:34:10;30.23;;;4.50;;
179;SDS011;78;48.788;9.010;2022-11-02T18:36:37;26.17;;;5.07;;
179;SDS011;78;48.788;9.010;2022-11-02T18:39:03;27.07;;;5.03;;
179;SDS011;78;48.788;9.010;2022-11-02T18:41:29;24.87;;;4.40;;
179;SDS011;78;48.788;9.010;2022-11-02T18:43:56;24.17;;;5.00;;
179;SDS011;78;48.788;9.010;2022-11-02T18:46:23;25.53;;;4.70;;
179;SDS011;78;48.788;9.010;2022-11-02T18:48:49;25.47;;;5.63;;